Hundvaag 1 weather for Oct 1995
Month no. 100
Obs.
Da.
Temp. Dew Point Precip. Wind
Speed
Wind gusts Cloud cover Press. Humidity Wind dir. Sunny OPT
01.10.1995 6,7   0,9     0          
02.10.1995 9,9   8,9     4          
03.10.1995 12,5   3,1     0          
04.10.1995 12,9   2,6     2          
05.10.1995 13,6   5,0     0       1  
06.10.1995 9,8   0,8     10          
07.10.1995 13,6   13,2     0       1  
08.10.1995 13,5   8,0     0          
09.10.1995 13,5   0,0     10       1  
10.10.1995 7,7   1,0     10       1  
11.10.1995 7,7   0,0     10          
12.10.1995 13,0   1,3     0          
13.10.1995 8,3   7,1     1       1  
14.10.1995 9,8   2,8     0          
15.10.1995 13,7   0,0     0          
16.10.1995 13,2   0,0     0          
17.10.1995 13,4   1,2     0          
18.10.1995 8,9   14,9     0          
19.10.1995 10,8   13,0     0          
20.10.1995 7,9   8,1     7       1  
21.10.1995 4,3   2,1     10       1  
22.10.1995 9,9   7,5     0          
23.10.1995 11,1   33,9     0          
24.10.1995 11,1   4,5     0       1  
25.10.1995 12,4   2,8     0       1  
26.10.1995 11,5   4,5     2          
27.10.1995 11,8   2,2     0          
28.10.1995 8,1   13,1     3       1  
29.10.1995 7,5   1,2     0       1  
30.10.1995 6,9   0,8     2          
31.10.1995 8,0   20,5     0          
Avrg/Sum 10,4   185,0     2,3       11